Time;durP1;ratioP1;P1;durP2;ratioP2;P2;SDS_P1;SDS_P2;PMS_P1;PMS_P2;Temp;Humidity;BMP_temperature;BMP_pressure;BME280_temperature;BME280_humidity;BME280_pressure;Samples;Min_cycle;Max_cycle;Signal;HPM_P1;HPM_P2
2022/05/06 00:01:53;;;;;;;4.03;2.58;;;15.10;55.20;;;;;;5090429;28;20502;-70
2022/05/06 00:04:19;;;;;;;2.22;2.03;;;15.10;55.30;;;;;;5108439;28;20107;-70
2022/05/06 00:06:44;;;;;;;2.60;2.40;;;15.10;55.30;;;;;;5077929;28;20062;-63
2022/05/06 00:09:10;;;;;;;5.03;2.75;;;15.10;55.30;;;;;;5094921;28;20388;-69
2022/05/06 00:11:36;;;;;;;3.00;2.30;;;15.00;55.30;;;;;;5076562;28;20044;-70
2022/05/06 00:14:02;;;;;;;2.97;2.20;;;15.00;55.30;;;;;;5076504;28;20043;-68
2022/05/06 00:16:28;;;;;;;2.92;2.20;;;15.00;55.40;;;;;;5094662;28;20487;-63
2022/05/06 00:18:54;;;;;;;3.25;2.17;;;15.00;55.40;;;;;;5076571;28;20032;-62
2022/05/06 00:21:21;;;;;;;3.22;2.50;;;15.00;55.40;;;;;;5076458;28;20046;-69
2022/05/06 00:23:47;;;;;;;2.22;1.92;;;15.00;55.40;;;;;;5076248;28;20119;-69
2022/05/06 00:26:13;;;;;;;3.38;2.28;;;15.00;55.50;;;;;;5094600;28;20083;-62
2022/05/06 00:28:39;;;;;;;2.85;2.58;;;15.00;55.50;;;;;;5076251;28;20044;-63
2022/05/06 00:31:07;;;;;;;3.97;2.70;;;14.90;55.50;;;;;;5076451;28;20028;-69
2022/05/06 00:33:33;;;;;;;2.58;2.38;;;14.90;55.40;;;;;;5076036;28;20051;-67
2022/05/06 00:36:01;;;;;;;2.60;2.08;;;14.90;55.50;;;;;;5076125;28;20218;-68
2022/05/06 00:38:27;;;;;;;3.40;2.80;;;14.90;55.40;;;;;;5094386;28;20032;-62
2022/05/06 00:40:53;;;;;;;2.60;2.40;;;14.90;55.40;;;;;;5076405;28;20058;-63
2022/05/06 00:43:20;;;;;;;2.75;2.35;;;14.90;55.40;;;;;;5076075;28;20051;-70
2022/05/06 00:48:32;;;;;;;3.00;2.70;;;14.90;55.50;;;;;;5130282;27;20375;-70
2022/05/06 00:50:59;;;;;;;3.75;2.55;;;14.80;55.40;;;;;;5129159;28;20058;-70
2022/05/06 00:53:25;;;;;;;3.85;2.55;;;14.80;55.40;;;;;;5130206;27;20031;-69
2022/05/06 00:55:52;;;;;;;2.95;2.67;;;14.80;55.50;;;;;;5129339;28;20038;-70
2022/05/06 00:58:19;;;;;;;3.97;2.88;;;14.80;55.50;;;;;;5129274;27;20074;-70
2022/05/06 01:00:46;;;;;;;3.35;2.08;;;14.80;55.50;;;;;;5128988;27;20432;-69
2022/05/06 01:03:12;;;;;;;2.75;2.45;;;14.80;55.50;;;;;;5129255;28;20047;-70
2022/05/06 01:05:40;;;;;;;2.05;1.85;;;14.80;55.50;;;;;;5129949;27;20475;-70
2022/05/06 01:08:07;;;;;;;2.90;2.20;;;14.80;55.60;;;;;;5129828;27;20048;-62
2022/05/06 01:10:35;;;;;;;2.88;2.58;;;14.80;55.60;;;;;;5128776;28;20118;-70
2022/05/06 01:13:00;;;;;;;2.53;2.30;;;14.80;55.60;;;;;;5128889;28;20039;-62
2022/05/06 01:15:28;;;;;;;3.38;2.40;;;14.70;55.60;;;;;;5128390;28;20162;-70
2022/05/06 01:17:55;;;;;;;2.65;2.33;;;14.70;55.60;;;;;;5128776;28;20039;-67
2022/05/06 01:20:22;;;;;;;3.10;2.40;;;14.70;55.60;;;;;;5145655;27;20049;-70
2022/05/06 01:25:27;;;;;;;3.95;2.42;;;14.70;55.60;;;;;;5130156;27;20357;-70
2022/05/06 01:28:00;;;;;;;2.92;2.50;;;14.70;55.60;;;;;;5129011;28;20343;-63
2022/05/06 01:33:14;;;;;;;3.10;2.60;;;14.70;55.70;;;;;;5153820;27;1165572;-64
2022/05/06 01:38:42;;;;;;;3.47;3.17;;;14.60;55.60;;;;;;5130444;27;20383;-70
2022/05/06 01:41:15;;;;;;;3.05;2.67;;;14.60;55.60;;;;;;5128893;28;20051;-70
2022/05/06 01:43:43;;;;;;;3.25;2.28;;;14.60;55.60;;;;;;5129139;28;20444;-62
2022/05/06 01:46:13;;;;;;;3.88;3.38;;;14.60;55.60;;;;;;5128846;28;20048;-71
2022/05/06 01:48:41;;;;;;;3.03;2.43;;;14.60;55.70;;;;;;5129102;28;20040;-72
2022/05/06 01:51:09;;;;;;;2.90;2.60;;;14.60;55.70;;;;;;5128923;28;20390;-64
2022/05/06 01:53:35;;;;;;;2.92;2.42;;;14.60;55.70;;;;;;5128745;28;20047;-64
2022/05/06 01:56:02;;;;;;;3.03;2.40;;;14.60;55.70;;;;;;5129913;28;20092;-72
2022/05/06 01:58:28;;;;;;;2.97;2.20;;;14.60;55.80;;;;;;5128630;28;20032;-72
2022/05/06 02:00:53;;;;;;;3.28;2.60;;;14.60;55.70;;;;;;5128543;28;20069;-65
2022/05/06 02:06:05;;;;;;;3.83;2.95;;;14.50;55.70;;;;;;5128275;28;20050;-73
2022/05/06 02:08:30;;;;;;;3.58;2.80;;;14.50;55.70;;;;;;5128659;28;20040;-64
2022/05/06 02:11:02;;;;;;;3.30;2.63;;;14.50;55.70;;;;;;5128213;28;20031;-72
2022/05/06 02:13:28;;;;;;;3.35;2.50;;;14.50;56.50;;;;;;5128682;28;20058;-72
2022/05/06 02:15:54;;;;;;;3.30;2.42;;;14.50;55.80;;;;;;5128132;28;20423;-64
2022/05/06 02:18:20;;;;;;;2.75;2.28;;;14.50;56.50;;;;;;5128283;28;20092;-72
2022/05/06 02:20:45;;;;;;;2.80;2.60;;;14.50;55.80;;;;;;5128406;28;20043;-73
2022/05/06 02:23:12;;;;;;;2.70;2.40;;;14.50;55.80;;;;;;5128130;28;20038;-72
2022/05/06 02:25:38;;;;;;;4.10;3.25;;;14.50;55.80;;;;;;5128165;28;20483;-72
2022/05/06 02:28:04;;;;;;;3.25;2.90;;;14.40;55.70;;;;;;5128029;28;20661;-72
2022/05/06 02:33:23;;;;;;;3.17;2.88;;;14.40;55.70;;;;;;5128961;28;20047;-64
2022/05/06 02:35:49;;;;;;;3.63;3.05;;;14.50;55.80;;;;;;5129489;27;20047;-64
2022/05/06 02:38:14;;;;;;;3.17;2.88;;;14.40;55.80;;;;;;5127513;28;20059;-65
2022/05/06 02:40:40;;;;;;;3.75;2.75;;;14.40;55.80;;;;;;5127854;28;20479;-72
2022/05/06 02:43:07;;;;;;;3.30;3.00;;;14.40;55.80;;;;;;5129397;28;20058;-65
2022/05/06 02:45:33;;;;;;;2.53;2.33;;;14.40;55.80;;;;;;5129068;27;20040;-72
2022/05/06 02:47:59;;;;;;;2.63;2.42;;;14.40;55.80;;;;;;5123756;28;20043;-65
2022/05/06 02:50:25;;;;;;;2.55;2.35;;;14.40;55.90;;;;;;5115488;28;20679;-72
2022/05/06 02:52:52;;;;;;;3.03;2.33;;;14.40;55.90;;;;;;5114172;28;20047;-71
2022/05/06 02:55:23;;;;;;;2.72;2.53;;;14.40;55.90;;;;;;5114119;28;20126;-67
2022/05/06 02:57:49;;;;;;;3.28;2.47;;;14.30;55.80;;;;;;5113818;28;20047;-74
2022/05/06 03:00:18;;;;;;;3.10;2.67;;;14.30;55.80;;;;;;5114039;28;20047;-72
2022/05/06 03:02:47;;;;;;;3.17;2.85;;;14.30;55.80;;;;;;5113670;28;20161;-72
2022/05/06 03:05:15;;;;;;;3.00;2.70;;;14.30;55.80;;;;;;5113810;28;20494;-72
2022/05/06 03:07:41;;;;;;;3.83;2.80;;;14.30;55.80;;;;;;5114012;28;20071;-72
2022/05/06 03:10:09;;;;;;;5.57;3.17;;;14.30;55.70;;;;;;5113945;28;20086;-67
2022/05/06 03:12:35;;;;;;;3.33;2.90;;;14.30;55.70;;;;;;5113870;28;20044;-72
2022/05/06 03:15:04;;;;;;;3.60;2.65;;;14.30;55.70;;;;;;5113768;28;20047;-72
2022/05/06 03:17:31;;;;;;;3.55;2.90;;;14.20;55.70;;;;;;5113411;28;20058;-64
2022/05/06 03:19:57;;;;;;;3.28;2.80;;;14.20;55.70;;;;;;5113649;28;20075;-72
2022/05/06 03:22:23;;;;;;;3.80;3.35;;;14.20;55.80;;;;;;5113658;28;20040;-72
2022/05/06 03:24:49;;;;;;;3.70;2.97;;;14.20;55.80;;;;;;5113320;28;20127;-72
2022/05/06 03:30:00;;;;;;;3.00;2.70;;;14.20;55.80;;;;;;5114254;28;20044;-72
2022/05/06 03:32:28;;;;;;;2.25;1.90;;;14.20;55.80;;;;;;5114434;28;20498;-64
2022/05/06 03:34:53;;;;;;;4.93;3.28;;;14.20;55.80;;;;;;5113059;28;20067;-72
2022/05/06 03:37:19;;;;;;;2.72;2.50;;;14.20;55.80;;;;;;5112836;28;20086;-71
2022/05/06 03:39:45;;;;;;;3.33;2.92;;;14.20;55.80;;;;;;5113223;28;20055;-72
2022/05/06 03:42:11;;;;;;;3.83;2.78;;;14.20;55.80;;;;;;5112980;28;20546;-72
2022/05/06 03:44:36;;;;;;;3.35;2.72;;;14.20;55.80;;;;;;5114057;28;20031;-72
2022/05/06 03:47:02;;;;;;;3.22;2.70;;;14.10;55.80;;;;;;5113117;28;20075;-72
2022/05/06 03:49:28;;;;;;;4.45;3.10;;;14.20;55.80;;;;;;5112823;28;20395;-64
2022/05/06 03:51:53;;;;;;;3.03;2.38;;;14.10;55.80;;;;;;5113268;28;20182;-72
2022/05/06 03:54:19;;;;;;;3.33;2.53;;;14.10;55.80;;;;;;5112775;28;20395;-64
2022/05/06 03:56:45;;;;;;;3.83;2.85;;;14.10;55.80;;;;;;5113997;28;20044;-68
2022/05/06 03:59:10;;;;;;;3.28;2.55;;;14.10;55.80;;;;;;5113539;28;20530;-66
2022/05/06 04:01:39;;;;;;;2.75;2.13;;;14.10;55.80;;;;;;5112123;28;20544;-72
2022/05/06 04:04:08;;;;;;;3.92;2.78;;;14.10;55.80;;;;;;5112846;28;20050;-64
2022/05/06 04:06:33;;;;;;;3.42;3.13;;;14.10;55.80;;;;;;5113845;28;20047;-72
2022/05/06 04:08:59;;;;;;;2.72;2.53;;;14.10;55.80;;;;;;5113762;28;20054;-64
2022/05/06 04:11:25;;;;;;;2.72;2.47;;;14.10;55.80;;;;;;5112354;28;20084;-65
2022/05/06 04:13:51;;;;;;;3.50;2.90;;;14.10;55.80;;;;;;5113690;28;20118;-73
2022/05/06 04:16:17;;;;;;;3.35;2.75;;;14.10;55.80;;;;;;5112344;28;20047;-65
2022/05/06 04:18:42;;;;;;;3.65;3.03;;;14.10;55.70;;;;;;5112331;28;20538;-64
2022/05/06 04:23:54;;;;;;;3.63;3.10;;;14.00;55.70;;;;;;5113279;28;20074;-71
2022/05/06 04:26:19;;;;;;;3.83;3.10;;;14.00;55.70;;;;;;5112327;28;20520;-65
2022/05/06 04:28:45;;;;;;;3.03;2.45;;;14.00;55.70;;;;;;5113323;28;20031;-64
2022/05/06 04:31:11;;;;;;;3.15;2.58;;;14.00;55.60;;;;;;5112196;28;20084;-64
2022/05/06 04:33:39;;;;;;;3.20;2.47;;;14.00;55.60;;;;;;5112247;28;20118;-67
2022/05/06 04:36:05;;;;;;;3.53;2.63;;;14.00;55.60;;;;;;5111889;28;20036;-64
2022/05/06 04:38:31;;;;;;;4.05;2.83;;;14.00;55.60;;;;;;5111646;28;20419;-72
2022/05/06 04:40:59;;;;;;;3.53;2.55;;;14.00;55.60;;;;;;5113035;28;20122;-64
2022/05/06 04:43:25;;;;;;;3.78;2.72;;;14.00;55.60;;;;;;5112260;28;20146;-64
2022/05/06 04:45:52;;;;;;;3.13;2.67;;;14.10;55.70;;;;;;5111907;28;20452;-65
2022/05/06 04:48:21;;;;;;;3.05;2.75;;;14.00;55.60;;;;;;5112921;28;20051;-74
2022/05/06 04:50:47;;;;;;;3.20;2.90;;;14.00;55.60;;;;;;5111911;28;20125;-72
2022/05/06 04:53:14;;;;;;;3.70;2.80;;;14.00;55.60;;;;;;5111943;28;20061;-64
2022/05/06 04:55:43;;;;;;;2.83;2.22;;;14.00;55.60;;;;;;5112849;28;20432;-71
2022/05/06 04:58:09;;;;;;;4.32;2.28;;;14.00;55.60;;;;;;5111317;28;20040;-72
2022/05/06 05:00:35;;;;;;;2.92;2.55;;;14.00;55.60;;;;;;5111746;28;20044;-72
2022/05/06 05:03:02;;;;;;;3.58;2.67;;;14.00;55.70;;;;;;5111742;28;20035;-67
2022/05/06 05:05:28;;;;;;;3.15;2.50;;;14.00;55.60;;;;;;5111416;28;20046;-72
2022/05/06 05:07:54;;;;;;;2.47;2.28;;;14.00;55.60;;;;;;5111361;28;20044;-72
2022/05/06 05:10:21;;;;;;;3.95;2.65;;;14.00;55.60;;;;;;5111447;28;20092;-72
2022/05/06 05:12:47;;;;;;;3.92;2.53;;;14.00;55.60;;;;;;5112310;28;20050;-71
2022/05/06 05:15:15;;;;;;;3.17;2.60;;;14.00;55.60;;;;;;5111616;28;20046;-72
2022/05/06 05:17:41;;;;;;;3.10;2.70;;;14.00;55.60;;;;;;5111103;28;20044;-67
2022/05/06 05:20:08;;;;;;;4.72;4.22;;;14.00;55.60;;;;;;5112518;28;20039;-71
2022/05/06 05:22:35;;;;;;;3.50;2.63;;;14.00;55.70;;;;;;5112414;28;20044;-63
2022/05/06 05:25:01;;;;;;;3.38;3.03;;;14.00;55.60;;;;;;5094469;28;20046;-66
2022/05/06 05:27:27;;;;;;;2.75;2.53;;;14.00;55.70;;;;;;5111242;28;20043;-72
2022/05/06 05:29:55;;;;;;;3.45;3.15;;;14.00;55.60;;;;;;5110435;28;20511;-72
2022/05/06 05:32:21;;;;;;;3.15;2.85;;;14.00;55.60;;;;;;5111050;28;20117;-69
2022/05/06 05:34:47;;;;;;;3.97;2.50;;;14.00;55.60;;;;;;5111401;28;20051;-65
2022/05/06 05:37:12;;;;;;;3.80;2.35;;;14.10;55.60;;;;;;5110618;28;20118;-72
2022/05/06 05:39:38;;;;;;;2.45;2.25;;;14.00;55.60;;;;;;5110843;28;20070;-72
2022/05/06 05:42:04;;;;;;;3.05;2.78;;;14.10;55.60;;;;;;5111140;28;20050;-72
2022/05/06 05:50:01;;;;;;;2.67;2.47;;;14.10;55.50;;;;;;5112142;28;20398;-72
2022/05/06 05:52:28;;;;;;;4.10;2.35;;;14.10;55.40;;;;;;5111175;28;20054;-72
2022/05/06 05:54:54;;;;;;;2.67;2.47;;;14.10;55.40;;;;;;5110843;28;20047;-72
2022/05/06 05:57:20;;;;;;;2.97;2.47;;;14.20;56.20;;;;;;5110831;28;20062;-70
2022/05/06 05:59:47;;;;;;;2.65;1.77;;;14.20;55.40;;;;;;5112237;28;20032;-70
2022/05/06 06:02:12;;;;;;;2.58;2.38;;;14.20;55.40;;;;;;5112089;28;20048;-72
2022/05/06 06:04:39;;;;;;;2.65;2.38;;;14.20;55.30;;;;;;5110747;28;20040;-71
2022/05/06 06:07:05;;;;;;;2.95;2.20;;;14.20;55.30;;;;;;5110740;28;20048;-70
2022/05/06 06:09:32;;;;;;;3.17;2.83;;;14.20;55.30;;;;;;5111867;28;20047;-70
2022/05/06 06:11:58;;;;;;;2.78;2.33;;;14.30;55.30;;;;;;5112174;28;20145;-71
2022/05/06 06:14:24;;;;;;;2.45;2.10;;;14.30;55.30;;;;;;5110963;28;20506;-65
2022/05/06 06:16:50;;;;;;;2.80;2.47;;;14.30;55.30;;;;;;5110900;28;20039;-69
2022/05/06 06:19:19;;;;;;;2.90;2.58;;;14.30;55.30;;;;;;5110892;28;20042;-70
2022/05/06 06:21:48;;;;;;;3.45;2.70;;;14.30;55.30;;;;;;5112364;28;20046;-71
2022/05/06 06:24:13;;;;;;;2.90;2.70;;;14.30;55.40;;;;;;5114134;28;20027;-71
2022/05/06 06:26:39;;;;;;;3.88;2.53;;;14.30;55.40;;;;;;5114559;28;20039;-70
2022/05/06 06:29:05;;;;;;;2.70;2.50;;;14.30;55.30;;;;;;5114421;28;20067;-70
2022/05/06 06:31:32;;;;;;;2.53;2.28;;;14.30;55.30;;;;;;5114474;28;20088;-64
2022/05/06 06:33:59;;;;;;;4.28;3.78;;;14.40;55.30;;;;;;5114605;28;20039;-70
2022/05/06 06:36:25;;;;;;;4.57;3.75;;;14.40;55.30;;;;;;5115506;28;20062;-69
2022/05/06 06:38:50;;;;;;;3.17;2.75;;;14.40;55.40;;;;;;5115291;28;20048;-65
2022/05/06 06:41:16;;;;;;;3.67;2.70;;;14.40;55.30;;;;;;5115475;28;20079;-71
2022/05/06 06:43:42;;;;;;;3.63;2.90;;;14.40;55.30;;;;;;5114171;28;20114;-71
2022/05/06 06:46:08;;;;;;;3.33;3.03;;;14.40;55.30;;;;;;5115473;28;20042;-64
2022/05/06 06:48:34;;;;;;;4.20;3.40;;;14.50;55.40;;;;;;5114102;28;20047;-71
2022/05/06 06:51:00;;;;;;;2.78;2.28;;;14.50;55.40;;;;;;5115221;28;20096;-65
2022/05/06 06:53:26;;;;;;;2.92;2.63;;;14.50;55.50;;;;;;5115343;28;20372;-64
2022/05/06 06:55:52;;;;;;;4.32;3.67;;;14.50;55.50;;;;;;5115119;28;20044;-66
2022/05/06 06:58:18;;;;;;;3.10;2.47;;;14.50;55.50;;;;;;5113839;28;20044;-64
2022/05/06 07:00:44;;;;;;;3.03;2.63;;;14.50;55.40;;;;;;5113810;28;20059;-71
2022/05/06 07:03:11;;;;;;;3.10;2.75;;;14.50;55.50;;;;;;5114085;28;20031;-70
2022/05/06 07:05:36;;;;;;;4.28;2.97;;;14.60;55.50;;;;;;5113661;28;20115;-64
2022/05/06 07:13:37;;;;;;;2.97;2.67;;;14.60;55.50;;;;;;5112872;28;20074;-64
2022/05/06 07:16:03;;;;;;;4.70;3.58;;;14.60;55.40;;;;;;5113371;28;20043;-64
2022/05/06 07:18:28;;;;;;;6.28;4.85;;;14.60;55.40;;;;;;5114899;28;20043;-70
2022/05/06 07:20:54;;;;;;;3.83;3.25;;;14.60;55.50;;;;;;5113565;28;20479;-69
2022/05/06 07:23:21;;;;;;;3.70;2.88;;;14.60;55.50;;;;;;5113461;28;20036;-71
2022/05/06 07:25:46;;;;;;;3.70;3.35;;;14.60;55.50;;;;;;5113323;28;20044;-65
2022/05/06 07:28:12;;;;;;;3.88;2.85;;;14.70;55.60;;;;;;5113295;28;20054;-68
2022/05/06 07:30:38;;;;;;;3.28;2.95;;;14.70;55.60;;;;;;5114610;28;20063;-68
2022/05/06 07:33:04;;;;;;;4.57;3.60;;;14.70;55.60;;;;;;5114372;28;20100;-64
2022/05/06 07:35:30;;;;;;;3.00;2.70;;;14.70;55.60;;;;;;5113041;28;20110;-70
2022/05/06 07:37:55;;;;;;;3.22;2.92;;;14.70;55.60;;;;;;5112590;28;20135;-68
2022/05/06 07:40:21;;;;;;;2.97;2.70;;;14.70;55.60;;;;;;5113305;28;20391;-65
2022/05/06 07:42:50;;;;;;;3.05;2.75;;;14.70;55.60;;;;;;5112992;28;20043;-71
2022/05/06 07:45:16;;;;;;;4.07;3.08;;;14.80;55.60;;;;;;5114356;28;20483;-71
2022/05/06 07:47:42;;;;;;;4.28;3.60;;;14.80;55.60;;;;;;5113118;28;20042;-66
2022/05/06 07:50:08;;;;;;;3.17;2.70;;;14.80;55.70;;;;;;5112894;28;20484;-70
2022/05/06 07:52:37;;;;;;;4.25;3.50;;;14.80;55.70;;;;;;5114159;28;20060;-70
2022/05/06 07:55:04;;;;;;;2.88;2.42;;;14.90;55.70;;;;;;5113032;28;20054;-64
2022/05/06 07:57:30;;;;;;;3.65;2.80;;;14.90;55.70;;;;;;5113907;28;20051;-70
2022/05/06 07:59:55;;;;;;;3.63;3.33;;;14.90;55.60;;;;;;5112671;28;20047;-65
2022/05/06 08:05:07;;;;;;;4.57;2.90;;;14.90;55.50;;;;;;5113589;28;20100;-66
2022/05/06 08:07:32;;;;;;;4.22;3.60;;;15.00;55.60;;;;;;5112545;28;20470;-70
2022/05/06 08:09:58;;;;;;;4.85;3.40;;;15.00;55.60;;;;;;5112459;28;20043;-70
2022/05/06 08:12:24;;;;;;;4.22;3.35;;;15.00;55.70;;;;;;5112398;28;20168;-69
2022/05/06 08:14:49;;;;;;;3.53;3.00;;;15.10;55.60;;;;;;5112650;28;20042;-65
2022/05/06 08:17:15;;;;;;;4.97;3.17;;;15.10;55.50;;;;;;5112509;28;20465;-72
2022/05/06 08:19:44;;;;;;;3.45;2.85;;;15.10;55.40;;;;;;5113556;27;20036;-65
2022/05/06 08:22:09;;;;;;;4.50;3.30;;;15.20;55.40;;;;;;5112225;28;20046;-64
2022/05/06 08:24:35;;;;;;;4.32;2.78;;;15.20;55.30;;;;;;5112172;28;20039;-70
2022/05/06 08:27:01;;;;;;;5.07;3.13;;;15.20;55.10;;;;;;5112165;28;20052;-70
2022/05/06 08:29:29;;;;;;;4.40;3.03;;;15.30;55.20;;;;;;5112258;28;20050;-67
2022/05/06 08:31:55;;;;;;;4.47;3.95;;;15.40;55.20;;;;;;5113370;28;20036;-64
2022/05/06 08:34:21;;;;;;;3.92;3.38;;;15.40;55.20;;;;;;5113122;28;20123;-70
2022/05/06 08:36:47;;;;;;;4.25;3.60;;;15.50;55.10;;;;;;5113378;28;20115;-67
2022/05/06 08:39:14;;;;;;;3.22;2.53;;;15.50;55.10;;;;;;5111584;28;20056;-71
2022/05/06 08:41:41;;;;;;;4.25;2.65;;;15.50;54.70;;;;;;5111797;28;20069;-72
2022/05/06 08:52:36;;;;;;;2.50;1.98;;;15.70;54.00;;;;;;5112799;28;20044;-70
2022/05/06 08:55:04;;;;;;;3.60;2.90;;;15.80;53.90;;;;;;5111581;28;20040;-70
2022/05/06 08:57:31;;;;;;;3.58;2.90;;;15.90;53.70;;;;;;5112661;28;20119;-69
2022/05/06 08:59:56;;;;;;;3.95;2.47;;;16.10;53.40;;;;;;5111485;28;20032;-70
2022/05/06 09:02:22;;;;;;;3.50;2.47;;;16.20;53.10;;;;;;5111527;28;20038;-70
2022/05/06 09:04:48;;;;;;;3.13;2.72;;;16.30;52.60;;;;;;5112853;28;20059;-70
2022/05/06 09:07:19;;;;;;;2.97;2.28;;;16.50;52.30;;;;;;5111471;28;20043;-69
2022/05/06 09:10:05;;;;;;;3.58;2.63;;;16.70;51.90;;;;;;5112716;28;20035;-68
2022/05/06 09:12:46;;;;;;;2.22;2.03;;;16.80;51.40;;;;;;5112502;28;20047;-70
2022/05/06 09:18:05;;;;;;;2.53;2.13;;;17.10;50.70;;;;;;5111085;28;20451;-64
2022/05/06 09:20:31;;;;;;;2.00;1.77;;;17.20;50.40;;;;;;5111603;28;20061;-66
2022/05/06 09:22:57;;;;;;;2.75;2.03;;;17.30;50.10;;;;;;5111508;28;20051;-70
2022/05/06 09:25:42;;;;;;;2.72;2.05;;;17.30;49.80;;;;;;5111388;28;20043;-64
2022/05/06 09:28:22;;;;;;;1.83;1.65;;;17.30;49.80;;;;;;5112456;28;20040;-70
2022/05/06 09:31:06;;;;;;;2.45;2.25;;;17.40;49.60;;;;;;5111291;28;20071;-71
2022/05/06 09:33:37;;;;;;;2.03;1.55;;;17.40;49.40;;;;;;5111149;28;20475;-69
2022/05/06 09:36:23;;;;;;;1.90;1.80;;;17.40;49.30;;;;;;5111007;28;20043;-64
2022/05/06 09:39:10;;;;;;;4.07;2.45;;;17.40;49.30;;;;;;5111975;28;20044;-64
2022/05/06 09:41:39;;;;;;;1.60;1.35;;;17.40;49.20;;;;;;5110760;28;20047;-66
2022/05/06 09:44:06;;;;;;;1.90;1.58;;;17.40;49.10;;;;;;5112421;28;20035;-71
2022/05/06 09:46:33;;;;;;;1.92;1.50;;;17.40;49.20;;;;;;5110962;28;20043;-71
2022/05/06 09:49:00;;;;;;;1.75;1.50;;;17.40;49.20;;;;;;5111231;28;20387;-70
2022/05/06 09:51:28;;;;;;;1.95;1.50;;;17.40;49.20;;;;;;5110875;28;20048;-71
2022/05/06 09:53:55;;;;;;;1.75;1.42;;;17.40;49.20;;;;;;5112215;28;20046;-71
2022/05/06 09:56:22;;;;;;;2.00;1.55;;;17.40;49.20;;;;;;5111989;28;20390;-64
2022/05/06 09:58:51;;;;;;;2.03;1.60;;;17.40;49.30;;;;;;5112876;28;20378;-69
2022/05/06 10:01:18;;;;;;;1.95;1.50;;;17.40;49.40;;;;;;5116430;28;20119;-71
2022/05/06 10:03:44;;;;;;;1.35;1.08;;;17.40;49.40;;;;;;5115068;28;20171;-71
2022/05/06 10:06:13;;;;;;;1.42;1.00;;;17.40;49.40;;;;;;5114830;28;20046;-71
2022/05/06 10:08:47;;;;;;;2.25;1.25;;;17.40;49.60;;;;;;5114918;28;20050;-64
2022/05/06 10:11:14;;;;;;;2.03;1.05;;;17.30;49.70;;;;;;5114708;28;20050;-64
2022/05/06 10:13:44;;;;;;;2.10;1.30;;;17.30;49.90;;;;;;5114790;28;20076;-71
2022/05/06 10:16:10;;;;;;;1.52;1.15;;;17.20;49.90;;;;;;5114893;28;20089;-71
2022/05/06 10:18:39;;;;;;;1.42;1.10;;;17.20;50.10;;;;;;5114645;28;20039;-71
2022/05/06 10:21:06;;;;;;;2.00;1.00;;;17.10;50.10;;;;;;5114600;28;20048;-68
2022/05/06 10:23:52;;;;;;;1.30;1.00;;;17.20;50.20;;;;;;5114541;28;20039;-71
2022/05/06 10:32:27;;;;;;;1.35;1.13;;;17.10;50.60;;;;;;5089309;28;20363;-70
2022/05/06 10:37:43;;;;;;;2.13;1.52;;;17.00;50.60;;;;;;5150767;27;20196;-70
2022/05/06 10:43:07;;;;;;;1.52;1.10;;;17.00;50.80;;;;;;5130302;27;20403;-70
2022/05/06 10:45:35;;;;;;;1.02;0.75;;;16.90;51.70;;;;;;5129390;28;20035;-70
2022/05/06 10:48:01;;;;;;;1.52;1.40;;;16.90;50.90;;;;;;5129198;28;20047;-71
2022/05/06 10:50:37;;;;;;;1.73;1.00;;;16.90;51.00;;;;;;5129158;28;20043;-69
2022/05/06 10:53:04;;;;;;;1.30;0.90;;;16.90;51.20;;;;;;5128776;28;20044;-71
2022/05/06 10:55:31;;;;;;;1.50;1.40;;;16.90;51.20;;;;;;5128844;28;20059;-70
2022/05/06 10:57:59;;;;;;;1.80;0.80;;;16.90;51.30;;;;;;5129169;28;20039;-70
2022/05/06 11:00:27;;;;;;;0.98;0.88;;;16.80;51.50;;;;;;5128983;28;20028;-62
2022/05/06 11:02:54;;;;;;;1.38;1.08;;;16.80;51.40;;;;;;5145822;27;20031;-71
2022/05/06 11:05:21;;;;;;;1.23;0.70;;;16.80;51.50;;;;;;5128697;27;20031;-70
2022/05/06 11:07:49;;;;;;;1.35;0.80;;;16.80;51.60;;;;;;5128508;28;20047;-65
2022/05/06 11:12:59;;;;;;;1.08;0.60;;;16.80;51.70;;;;;;5151047;27;20695;-71
2022/05/06 11:18:05;;;;;;;1.05;0.80;;;16.70;51.60;;;;;;5089440;27;20421;-70
2022/05/06 11:23:14;;;;;;;1.00;0.70;;;16.70;51.60;;;;;;5150956;27;20111;-69
2022/05/06 11:25:45;;;;;;;1.13;0.80;;;16.70;51.80;;;;;;5128932;28;20058;-70
2022/05/06 11:30:54;;;;;;;1.00;0.88;;;16.70;51.90;;;;;;5130143;27;20387;-71
2022/05/06 11:33:24;;;;;;;0.80;0.60;;;16.70;52.00;;;;;;5146444;27;20043;-69
2022/05/06 11:36:02;;;;;;;1.53;0.77;;;16.70;52.00;;;;;;5129304;28;20390;-71
2022/05/06 11:38:33;;;;;;;0.75;0.50;;;16.70;52.00;;;;;;5129204;28;20071;-64
2022/05/06 11:41:15;;;;;;;0.95;0.65;;;16.70;52.00;;;;;;5128806;28;20122;-70
2022/05/06 11:43:42;;;;;;;1.10;0.80;;;16.70;52.00;;;;;;5128832;28;20047;-62
2022/05/06 11:48:54;;;;;;;0.73;0.60;;;16.70;52.00;;;;;;5127603;27;1848149;-62
2022/05/06 11:51:24;;;;;;;1.20;0.70;;;16.80;52.10;;;;;;5153092;27;20473;-71
2022/05/06 11:53:50;;;;;;;0.77;0.50;;;16.70;52.10;;;;;;5153413;27;20067;-69
2022/05/06 11:56:22;;;;;;;1.58;0.68;;;16.70;52.10;;;;;;5153279;27;20564;-71
2022/05/06 11:58:48;;;;;;;2.00;0.63;;;16.80;52.10;;;;;;5153072;27;20076;-71
2022/05/06 12:01:28;;;;;;;0.93;0.65;;;16.80;52.10;;;;;;5153065;27;20675;-70
2022/05/06 12:04:00;;;;;;;2.25;0.65;;;16.80;52.00;;;;;;5165838;27;20057;-63
2022/05/06 12:06:27;;;;;;;1.35;0.40;;;16.80;52.10;;;;;;5152171;27;20035;-70
2022/05/06 12:09:07;;;;;;;1.63;0.57;;;16.80;53.10;;;;;;5147488;27;20061;-68
2022/05/06 12:11:32;;;;;;;1.85;0.40;;;17.00;54.10;;;;;;5160665;27;20038;-70
2022/05/06 12:14:06;;;;;;;0.80;0.50;;;17.10;54.10;;;;;;5192506;27;20102;-64
2022/05/06 12:16:32;;;;;;;1.90;0.35;;;17.30;55.40;;;;;;5173635;27;20026;-68
2022/05/06 12:18:58;;;;;;;0.70;0.40;;;17.40;54.50;;;;;;5188060;27;20511;-70
2022/05/06 12:21:27;;;;;;;0.60;0.35;;;17.50;54.50;;;;;;5175402;27;20038;-65
2022/05/06 12:23:56;;;;;;;0.98;0.50;;;17.60;54.50;;;;;;5161672;27;20043;-67
2022/05/06 12:26:38;;;;;;;0.98;0.30;;;17.70;54.40;;;;;;5153904;27;20588;-69
2022/05/06 12:29:20;;;;;;;6.28;1.40;;;17.80;54.50;;;;;;5161504;27;20031;-69
2022/05/06 12:31:48;;;;;;;1.92;0.50;;;17.80;54.20;;;;;;5131548;27;20115;-68
2022/05/06 12:34:14;;;;;;;3.53;0.50;;;17.90;54.20;;;;;;5131580;27;20497;-63
2022/05/06 12:36:40;;;;;;;1.25;0.32;;;18.00;54.10;;;;;;5147429;27;20039;-64
2022/05/06 12:39:22;;;;;;;3.25;0.50;;;18.00;54.10;;;;;;5150350;27;20352;-64
2022/05/06 12:41:49;;;;;;;1.77;0.40;;;18.10;54.20;;;;;;5168251;27;20121;-68
2022/05/06 12:47:13;;;;;;;2.65;0.50;;;18.10;53.90;;;;;;5151278;27;20215;-71
2022/05/06 12:49:40;;;;;;;5.72;0.30;;;18.00;53.60;;;;;;5128691;28;20046;-71
2022/05/06 12:52:08;;;;;;;2.00;0.47;;;18.00;53.70;;;;;;5128654;28;20041;-71
2022/05/06 12:54:40;;;;;;;2.75;0.60;;;17.90;53.60;;;;;;5127262;28;20478;-63
2022/05/06 12:57:07;;;;;;;2.35;0.43;;;17.90;53.60;;;;;;5128263;28;20045;-72
2022/05/06 12:59:33;;;;;;;2.60;0.38;;;17.80;53.50;;;;;;5130692;27;20050;-64
2022/05/06 13:01:59;;;;;;;1.10;0.50;;;17.80;53.60;;;;;;5128937;28;20279;-71
2022/05/06 13:04:24;;;;;;;4.03;0.40;;;17.70;53.50;;;;;;5128875;28;20428;-72
2022/05/06 13:06:50;;;;;;;1.17;0.40;;;17.70;53.50;;;;;;5128905;28;20663;-67
2022/05/06 13:09:16;;;;;;;0.40;0.30;;;17.70;53.50;;;;;;5129851;28;20039;-65
2022/05/06 13:11:42;;;;;;;1.15;0.25;;;17.60;53.50;;;;;;5128440;28;20097;-71
2022/05/06 13:14:07;;;;;;;0.90;0.40;;;17.60;53.50;;;;;;5128744;28;20043;-72
2022/05/06 13:16:35;;;;;;;0.95;0.30;;;17.60;53.50;;;;;;5128613;28;20483;-72
2022/05/06 13:19:02;;;;;;;0.80;0.30;;;17.50;53.50;;;;;;5128396;28;20051;-66
2022/05/06 13:21:28;;;;;;;1.00;0.50;;;17.50;53.40;;;;;;5129781;27;20043;-71
2022/05/06 13:23:53;;;;;;;1.30;0.30;;;17.50;53.50;;;;;;5128537;28;20043;-72
2022/05/06 13:26:19;;;;;;;2.22;0.47;;;17.50;53.50;;;;;;5128164;28;20036;-69
2022/05/06 13:28:50;;;;;;;2.50;0.45;;;17.50;53.50;;;;;;5128126;28;20394;-71
2022/05/06 13:31:16;;;;;;;1.20;0.68;;;17.50;53.50;;;;;;5129674;27;20034;-64
2022/05/06 13:33:41;;;;;;;1.05;0.30;;;17.50;53.40;;;;;;5128090;28;20421;-65
2022/05/06 13:36:07;;;;;;;0.80;0.30;;;17.50;53.50;;;;;;5129614;28;20105;-71
2022/05/06 13:38:33;;;;;;;2.20;0.50;;;17.50;53.40;;;;;;5128302;28;20054;-63
2022/05/06 13:40:58;;;;;;;1.35;0.50;;;17.50;53.40;;;;;;5128179;28;20046;-72
2022/05/06 13:43:24;;;;;;;1.92;0.32;;;17.50;53.30;;;;;;5128183;28;20058;-64
2022/05/06 13:45:50;;;;;;;1.00;0.43;;;17.50;53.30;;;;;;5127591;28;20066;-72
2022/05/06 13:48:15;;;;;;;1.27;0.60;;;17.50;53.30;;;;;;5127683;28;20054;-72
2022/05/06 13:50:41;;;;;;;2.10;0.40;;;17.50;53.30;;;;;;5127863;28;20043;-63
2022/05/06 13:53:09;;;;;;;1.15;0.60;;;17.50;53.30;;;;;;5129456;28;20062;-72
2022/05/06 14:01:14;;;;;;;1.48;0.35;;;17.50;53.30;;;;;;5114649;28;20104;-72
2022/05/06 14:03:39;;;;;;;0.65;0.30;;;17.50;53.20;;;;;;5115174;28;20036;-71
2022/05/06 14:06:05;;;;;;;1.65;0.32;;;17.50;53.10;;;;;;5113772;28;20036;-71
2022/05/06 14:08:31;;;;;;;0.80;0.40;;;17.50;53.10;;;;;;5114043;28;20048;-72